Granite, Colorado
Current Conditions -  °F | °C
As of 8:53 PM on Tuesday 27 Jan 2015 (Local Time) from KLXV Reporting Station
Clear Clear  
Wind Chill: 21°   Ceiling: Unl
Heat Index: 29°   Visibility: 10mi
Dew Point: 14°   Wind: 8mph
Humidity: 54%   Direction: 340°NNW
Pressure: 30.28"   Gusts: NA
Location:  39.05°N, 106.27°W
Report Text: KLXV 280353Z AUTO 34007KT 10SM CLR M02/M10 A3028 RMK AO2 SLP202 T10171100
Loading
Personal Weather Stations






























Interactive Weather Map New forecast layout! Learn more

10-Day Weather Forecast

Advertisements
Track Severe Weather on mobile